createdAt,value
2022-09-09T00:00:50.196Z,22.15
2022-09-09T00:03:22.646Z,22.09
2022-09-09T00:06:12.255Z,22.07
2022-09-09T00:08:50.625Z,22.00
2022-09-09T00:11:31.302Z,22.00
2022-09-09T00:14:04.451Z,22.01
2022-09-09T00:16:35.600Z,22.00
2022-09-09T00:19:09.195Z,22.00
2022-09-09T00:21:39.821Z,22.17
2022-09-09T00:24:28.948Z,22.26
2022-09-09T00:27:02.155Z,22.39
2022-09-09T00:29:36.975Z,22.38
2022-09-09T00:32:17.237Z,22.47
2022-09-09T00:34:57.082Z,22.45
2022-09-09T00:37:29.164Z,22.18
2022-09-09T00:40:01.196Z,22.17
2022-09-09T00:42:38.209Z,22.09
2022-09-09T00:45:26.300Z,22.07
2022-09-09T00:47:56.502Z,22.00
2022-09-09T00:50:31.148Z,22.05
2022-09-09T00:52:58.782Z,22.14
2022-09-09T00:55:44.589Z,22.10
2022-09-09T00:58:12.367Z,22.09
2022-09-09T01:00:45.781Z,22.04
2022-09-09T01:03:26.542Z,22.05
2022-09-09T01:06:24.810Z,22.05
2022-09-09T01:09:16.913Z,22.05
2022-09-09T01:11:47.362Z,22.04
2022-09-09T01:14:33.428Z,22.06
2022-09-09T01:17:08.562Z,22.13
2022-09-09T01:19:45.799Z,22.20
2022-09-09T01:22:37.416Z,22.16
2022-09-09T01:25:13.874Z,22.21
2022-09-09T01:28:00.934Z,22.17
2022-09-09T01:30:29.206Z,22.14
2022-09-09T01:33:01.340Z,22.07
2022-09-09T01:35:52.651Z,22.10
2022-09-09T01:38:22.302Z,22.10
2022-09-09T01:40:53.353Z,21.98
2022-09-09T01:43:25.881Z,21.93
2022-09-09T01:45:56.911Z,21.94
2022-09-09T01:48:25.843Z,21.86
2022-09-09T01:51:04.208Z,21.88
2022-09-09T01:53:31.932Z,22.10
2022-09-09T01:56:43.305Z,21.98
2022-09-09T01:59:26.793Z,21.94
2022-09-09T02:02:24.202Z,21.78
2022-09-09T02:05:15.628Z,21.74
2022-09-09T02:07:49.306Z,21.68
2022-09-09T02:10:54.760Z,21.81
2022-09-09T02:13:37.454Z,22.00
2022-09-09T02:16:52.261Z,21.80
2022-09-09T02:19:27.422Z,21.87
2022-09-09T02:22:10.184Z,21.68
2022-09-09T02:24:41.017Z,21.77
2022-09-09T02:27:20.296Z,21.76
2022-09-09T02:29:48.473Z,21.84
2022-09-09T02:32:26.388Z,21.78
2022-09-09T02:35:19.138Z,21.69
2022-09-09T02:37:51.022Z,21.71
2022-09-09T02:40:18.818Z,21.77
2022-09-09T02:42:50.958Z,21.71
2022-09-09T02:45:26.107Z,21.71
2022-09-09T02:48:00.008Z,21.69
2022-09-09T02:50:43.274Z,21.64
2022-09-09T02:53:17.059Z,21.66
2022-09-09T02:55:55.726Z,21.78
2022-09-09T02:58:25.184Z,21.74
2022-09-09T03:00:59.006Z,21.67
2022-09-09T03:03:28.143Z,21.62
2022-09-09T03:05:57.913Z,21.60
2022-09-09T03:08:28.251Z,21.40
2022-09-09T03:10:59.223Z,21.37
2022-09-09T03:13:31.066Z,21.36
2022-09-09T03:15:58.335Z,21.33
2022-09-09T03:18:26.143Z,21.27
2022-09-09T03:20:55.352Z,21.27
2022-09-09T03:23:24.108Z,21.30
2022-09-09T03:25:53.013Z,21.34
2022-09-09T03:28:32.294Z,21.43
2022-09-09T03:31:02.847Z,21.41
2022-09-09T03:33:35.259Z,21.48
2022-09-09T03:36:02.768Z,21.55
2022-09-09T03:38:30.515Z,21.68
2022-09-09T03:41:01.382Z,21.85
2022-09-09T03:43:30.210Z,22.15
2022-09-09T03:45:58.110Z,22.30
2022-09-09T03:48:29.298Z,22.40
2022-09-09T03:50:58.983Z,22.31
2022-09-09T03:53:26.746Z,22.17
2022-09-09T03:55:56.586Z,22.49
2022-09-09T03:58:27.837Z,22.36
2022-09-09T04:01:02.886Z,22.28
2022-09-09T04:03:31.359Z,22.07
2022-09-09T04:06:01.041Z,21.93
2022-09-09T04:08:34.238Z,21.93
2022-09-09T04:11:06.017Z,21.82
2022-09-09T04:13:42.664Z,21.70
2022-09-09T04:16:16.667Z,21.62
2022-09-09T04:18:44.875Z,21.51
2022-09-09T04:21:13.527Z,21.38
2022-09-09T04:23:41.903Z,21.44
2022-09-09T04:26:10.200Z,21.42
2022-09-09T04:28:38.985Z,21.34
2022-09-09T04:31:19.704Z,21.37
2022-09-09T04:33:48.467Z,21.39
2022-09-09T04:36:19.497Z,21.66
2022-09-09T04:38:49.850Z,21.77
2022-09-09T04:41:17.633Z,21.77
2022-09-09T04:43:49.588Z,21.94
2022-09-09T04:46:18.493Z,21.88
2022-09-09T04:48:46.374Z,21.95
2022-09-09T04:51:15.289Z,22.03
2022-09-09T04:53:44.592Z,21.95
2022-09-09T04:56:16.412Z,22.07
2022-09-09T04:58:53.284Z,22.05
2022-09-09T05:01:25.573Z,21.90
2022-09-09T05:03:56.287Z,22.03
2022-09-09T05:06:24.404Z,22.20
2022-09-09T05:08:56.344Z,22.27
2022-09-09T05:11:29.167Z,22.23
2022-09-09T05:14:08.630Z,22.26
2022-09-09T05:16:36.634Z,22.30
2022-09-09T05:19:04.328Z,22.38
2022-09-09T05:21:43.108Z,22.35
2022-09-09T05:24:13.221Z,22.36
2022-09-09T05:26:41.078Z,22.36
2022-09-09T05:29:09.758Z,22.42
2022-09-09T05:31:37.834Z,22.51
2022-09-09T05:34:10.170Z,22.45
2022-09-09T05:36:37.865Z,22.63
2022-09-09T05:39:05.377Z,22.77
2022-09-09T05:41:36.676Z,22.80
2022-09-09T05:44:04.702Z,22.93
2022-09-09T05:46:36.407Z,22.93
2022-09-09T05:49:06.553Z,22.92
2022-09-09T05:51:35.507Z,22.86
2022-09-09T05:54:10.379Z,22.89
2022-09-09T05:56:42.585Z,22.98
2022-09-09T05:59:10.784Z,23.25
2022-09-09T06:01:44.594Z,23.45
2022-09-09T06:04:25.907Z,23.83
2022-09-09T06:06:54.051Z,24.03
2022-09-09T06:09:23.899Z,24.30
2022-09-09T06:11:51.247Z,24.91
2022-09-09T06:14:20.339Z,25.32
2022-09-09T06:16:49.507Z,25.86
2022-09-09T06:19:25.416Z,26.34
2022-09-09T06:21:52.826Z,26.50
2022-09-09T06:24:21.050Z,26.79
2022-09-09T06:26:48.575Z,26.74
2022-09-09T06:29:29.151Z,26.53
2022-09-09T06:31:57.387Z,27.14
2022-09-09T06:34:27.118Z,27.55
2022-09-09T06:36:58.671Z,29.40
2022-09-09T06:39:27.330Z,29.98
2022-09-09T06:41:55.603Z,31.25
2022-09-09T06:44:42.004Z,32.69
2022-09-09T06:47:13.723Z,32.57
2022-09-09T06:49:48.178Z,33.16
2022-09-09T06:52:15.977Z,33.87
2022-09-09T06:54:43.720Z,34.89
2022-09-09T06:59:58.414Z,34.13
2022-09-09T07:02:26.126Z,35.06
2022-09-09T07:04:54.412Z,34.99
2022-09-09T07:07:21.744Z,32.66
2022-09-09T07:09:50.213Z,32.74
2022-09-09T07:12:17.662Z,31.98
2022-09-09T07:14:53.771Z,31.99
2022-09-09T07:17:21.074Z,31.09
2022-09-09T07:19:49.212Z,31.48
2022-09-09T07:22:17.732Z,33.32
2022-09-09T07:24:46.794Z,33.70
2022-09-09T07:27:15.841Z,33.60
2022-09-09T07:29:43.895Z,35.66
2022-09-09T07:32:12.033Z,34.37
2022-09-09T07:34:39.537Z,34.97
2022-09-09T07:37:07.489Z,33.92
2022-09-09T07:39:35.941Z,33.97
2022-09-09T07:42:03.462Z,32.87
2022-09-09T07:44:30.989Z,32.71
2022-09-09T07:47:11.896Z,34.08
2022-09-09T07:49:50.644Z,35.01
2022-09-09T07:52:22.560Z,34.32
2022-09-09T07:54:54.901Z,35.58
2022-09-09T07:57:22.579Z,34.74
2022-09-09T07:59:51.601Z,35.28
2022-09-09T08:02:19.112Z,35.82
2022-09-09T08:04:47.335Z,35.20
2022-09-09T08:07:18.764Z,35.64
2022-09-09T08:09:51.510Z,36.19
2022-09-09T08:12:24.300Z,36.78
2022-09-09T08:14:55.429Z,35.27
2022-09-09T08:17:23.644Z,33.78
2022-09-09T08:19:51.484Z,34.74
2022-09-09T08:22:23.307Z,36.64
2022-09-09T08:24:51.406Z,35.15
2022-09-09T08:27:19.974Z,35.53
2022-09-09T08:29:47.477Z,34.62
2022-09-09T08:32:15.400Z,35.39
2022-09-09T08:34:46.587Z,36.23
2022-09-09T08:37:18.046Z,35.54
2022-09-09T08:39:45.502Z,36.22
2022-09-09T08:42:32.843Z,36.32
2022-09-09T08:45:15.923Z,37.34
2022-09-09T08:47:54.488Z,37.14
2022-09-09T08:50:28.995Z,36.82
2022-09-09T08:53:18.497Z,37.14
2022-09-09T08:55:56.192Z,37.68
2022-09-09T08:58:37.711Z,38.37
2022-09-09T09:01:11.531Z,37.84
2022-09-09T09:04:12.943Z,38.63
2022-09-09T09:07:05.891Z,36.89
2022-09-09T09:09:47.515Z,38.49
2022-09-09T09:12:24.653Z,37.14
2022-09-09T09:14:53.127Z,37.47
2022-09-09T09:17:24.496Z,37.00
2022-09-09T09:19:52.596Z,37.23
2022-09-09T09:22:49.848Z,36.88
2022-09-09T09:25:32.477Z,37.72
2022-09-09T09:28:11.857Z,38.25
2022-09-09T09:30:47.323Z,37.56
2022-09-09T09:33:28.071Z,37.75
2022-09-09T09:35:55.930Z,37.18
2022-09-09T09:41:13.899Z,35.28
2022-09-09T09:43:43.627Z,34.18
2022-09-09T09:46:24.832Z,32.69
2022-09-09T09:49:06.788Z,32.47
2022-09-09T09:51:35.529Z,32.06
2022-09-09T09:54:16.092Z,32.50
2022-09-09T09:56:48.749Z,32.83
2022-09-09T09:59:39.146Z,31.43
2022-09-09T10:02:18.054Z,29.49
2022-09-09T10:04:48.429Z,26.42
2022-09-09T10:07:21.564Z,24.94
2022-09-09T10:09:58.078Z,23.49
2022-09-09T10:12:50.842Z,22.42
2022-09-09T10:15:27.186Z,21.49
2022-09-09T10:18:29.508Z,20.93
2022-09-09T10:21:14.242Z,21.14
2022-09-09T10:24:24.187Z,21.33
2022-09-09T10:27:13.720Z,21.75
2022-09-09T10:29:47.006Z,21.82
2022-09-09T10:32:38.331Z,22.11
2022-09-09T10:35:16.553Z,22.19
2022-09-09T10:38:03.202Z,22.19
2022-09-09T10:40:39.138Z,22.07
2022-09-09T10:43:09.457Z,22.27
2022-09-09T10:45:49.543Z,21.90
2022-09-09T10:48:30.031Z,22.15
2022-09-09T10:51:20.351Z,22.04
2022-09-09T10:54:00.705Z,22.05
2022-09-09T10:56:30.249Z,21.91
2022-09-09T10:59:13.346Z,22.20
2022-09-09T11:01:58.406Z,22.08
2022-09-09T11:04:58.139Z,22.07
2022-09-09T11:07:40.502Z,22.19
2022-09-09T11:10:34.147Z,22.22
2022-09-09T11:13:07.030Z,22.27
2022-09-09T11:15:44.439Z,22.08
2022-09-09T11:18:22.643Z,21.98
2022-09-09T11:20:56.826Z,21.98
2022-09-09T11:23:33.369Z,22.03
2022-09-09T11:26:08.454Z,22.51
2022-09-09T11:28:52.219Z,22.72
2022-09-09T11:31:38.222Z,22.90
2022-09-09T11:34:27.177Z,23.24
2022-09-09T11:37:49.293Z,23.68
2022-09-09T11:40:20.194Z,23.87
2022-09-09T11:42:50.848Z,24.67
2022-09-09T11:45:32.238Z,25.03
2022-09-09T11:48:01.733Z,25.07
2022-09-09T11:50:39.013Z,24.93
2022-09-09T11:53:23.733Z,25.22
2022-09-09T11:56:14.647Z,25.68
2022-09-09T11:58:46.775Z,26.25
2022-09-09T12:01:34.456Z,27.29
2022-09-09T12:04:13.351Z,27.40
2022-09-09T12:06:54.140Z,26.91
2022-09-09T12:09:28.675Z,27.70
2022-09-09T12:12:14.494Z,28.33
2022-09-09T12:14:42.129Z,28.32
2022-09-09T12:17:31.666Z,28.93
2022-09-09T12:20:32.408Z,28.90
2022-09-09T12:23:06.287Z,28.81
2022-09-09T12:25:51.781Z,28.95
2022-09-09T12:28:23.525Z,29.01
2022-09-09T12:31:19.140Z,28.66
2022-09-09T12:33:48.481Z,28.95
2022-09-09T12:36:20.806Z,29.34
2022-09-09T12:38:49.161Z,29.38
2022-09-09T12:41:23.978Z,29.57
2022-09-09T12:43:52.353Z,29.55
2022-09-09T12:46:37.668Z,29.51
2022-09-09T12:49:05.570Z,29.51
2022-09-09T12:51:34.319Z,29.67
2022-09-09T12:54:01.862Z,29.81
2022-09-09T12:56:32.257Z,29.76
2022-09-09T12:59:01.935Z,29.86
2022-09-09T13:01:31.998Z,29.78
2022-09-09T13:04:00.367Z,29.78
2022-09-09T13:06:30.062Z,29.83
2022-09-09T13:09:00.332Z,30.25
2022-09-09T13:11:34.039Z,30.08
2022-09-09T13:14:02.199Z,30.32
2022-09-09T13:16:33.388Z,29.95
2022-09-09T13:19:16.876Z,30.06
2022-09-09T13:21:44.191Z,30.15
2022-09-09T13:24:33.491Z,30.29
2022-09-09T13:27:26.719Z,30.30
2022-09-09T13:29:56.877Z,30.44
2022-09-09T13:32:27.860Z,30.31
2022-09-09T13:35:01.135Z,30.53
2022-09-09T13:37:37.788Z,30.46
2022-09-09T13:40:19.470Z,30.39
2022-09-09T13:42:46.904Z,30.12
2022-09-09T13:45:23.439Z,30.31
2022-09-09T13:47:56.327Z,30.15
2022-09-09T13:50:26.227Z,30.05
2022-09-09T13:52:55.707Z,30.10
2022-09-09T13:55:24.770Z,30.13
2022-09-09T13:57:57.032Z,30.32
2022-09-09T14:00:25.393Z,30.58
2022-09-09T14:02:52.943Z,30.51
2022-09-09T14:05:20.691Z,30.28
2022-09-09T14:07:51.315Z,30.17
2022-09-09T14:10:20.846Z,30.35
2022-09-09T14:12:48.133Z,30.23
2022-09-09T14:15:15.638Z,29.29
2022-09-09T14:17:43.393Z,28.79
2022-09-09T14:20:12.857Z,28.95
2022-09-09T14:22:42.646Z,29.19
2022-09-09T14:25:10.002Z,29.43
2022-09-09T14:27:37.350Z,29.29
2022-09-09T14:30:05.680Z,29.49
2022-09-09T14:32:33.984Z,29.61
2022-09-09T14:35:01.271Z,29.16
2022-09-09T14:37:31.494Z,29.00
2022-09-09T14:39:59.083Z,28.84
2022-09-09T14:42:27.718Z,29.07
2022-09-09T14:44:55.022Z,28.88
2022-09-09T14:47:23.055Z,28.63
2022-09-09T14:49:50.855Z,28.63
2022-09-09T14:52:18.408Z,28.69
2022-09-09T14:54:45.678Z,28.92
2022-09-09T14:57:12.910Z,28.90
2022-09-09T14:59:41.570Z,28.98
2022-09-09T15:02:10.123Z,28.64
2022-09-09T15:04:37.511Z,28.55
2022-09-09T15:07:04.884Z,28.39
2022-09-09T15:09:33.147Z,28.31
2022-09-09T15:12:01.773Z,28.48
2022-09-09T15:14:29.081Z,28.63
2022-09-09T15:16:56.401Z,28.54
2022-09-09T15:19:23.670Z,28.46
2022-09-09T15:21:50.964Z,28.38
2022-09-09T15:24:18.244Z,28.77
2022-09-09T15:26:46.522Z,28.32
2022-09-09T15:29:13.833Z,28.18
2022-09-09T15:31:41.311Z,28.20
2022-09-09T15:34:08.837Z,28.07
2022-09-09T15:36:38.833Z,27.90
2022-09-09T15:39:09.308Z,27.81
2022-09-09T15:41:36.798Z,27.79
2022-09-09T15:44:04.074Z,27.88
2022-09-09T15:46:40.129Z,27.66
2022-09-09T15:49:16.141Z,27.84
2022-09-09T15:51:45.609Z,27.51
2022-09-09T15:54:19.020Z,27.34
2022-09-09T15:56:49.738Z,27.63
2022-09-09T15:59:17.089Z,27.70
2022-09-09T16:01:44.963Z,27.53
2022-09-09T16:04:13.123Z,27.49
2022-09-09T16:06:40.572Z,27.40
2022-09-09T16:09:09.153Z,27.32
2022-09-09T16:11:38.622Z,27.39
2022-09-09T16:14:07.650Z,27.46
2022-09-09T16:16:36.230Z,27.38
2022-09-09T16:19:10.444Z,27.44
2022-09-09T16:21:41.299Z,27.22
2022-09-09T16:24:11.173Z,26.91
2022-09-09T16:26:40.530Z,26.71
2022-09-09T16:29:07.854Z,26.82
2022-09-09T16:31:35.530Z,26.78
2022-09-09T16:34:04.462Z,26.78
2022-09-09T16:36:35.155Z,26.64
2022-09-09T16:39:06.245Z,26.66
2022-09-09T16:41:34.538Z,26.54
2022-09-09T16:44:05.223Z,26.59
2022-09-09T16:46:35.941Z,26.32
2022-09-09T16:49:05.887Z,26.35
2022-09-09T16:51:36.387Z,26.31
2022-09-09T16:54:08.614Z,26.29
2022-09-09T16:56:44.431Z,26.20
2022-09-09T16:59:19.728Z,26.06
2022-09-09T17:01:49.688Z,26.19
2022-09-09T17:04:26.561Z,26.22
2022-09-09T17:06:55.513Z,26.01
2022-09-09T17:09:24.279Z,25.86
2022-09-09T17:11:55.807Z,25.75
2022-09-09T17:14:24.731Z,25.62
2022-09-09T17:16:54.982Z,25.46
2022-09-09T17:19:22.311Z,25.61
2022-09-09T17:22:14.991Z,25.57
2022-09-09T17:24:39.970Z,25.46
2022-09-09T17:27:08.011Z,25.28
2022-09-09T17:29:36.878Z,25.22
2022-09-09T17:32:06.335Z,25.08
2022-09-09T17:34:35.001Z,24.88
2022-09-09T17:37:02.336Z,24.96
2022-09-09T17:39:29.901Z,24.89
2022-09-09T17:41:57.188Z,24.76
2022-09-09T17:44:24.580Z,24.89
2022-09-09T17:46:52.030Z,24.89
2022-09-09T17:49:19.444Z,24.82
2022-09-09T17:51:47.108Z,24.89
2022-09-09T17:54:18.035Z,24.87
2022-09-09T17:56:46.707Z,24.67
2022-09-09T17:59:15.926Z,24.54
2022-09-09T18:01:46.379Z,24.57
2022-09-09T18:04:15.664Z,24.66
2022-09-09T18:06:46.029Z,24.40
2022-09-09T18:09:16.993Z,24.51
2022-09-09T18:11:46.575Z,24.51
2022-09-09T18:14:32.787Z,24.49
2022-09-09T18:17:02.022Z,24.44
2022-09-09T18:19:31.130Z,24.42
2022-09-09T18:22:01.940Z,24.22
2022-09-09T18:24:31.052Z,24.26
2022-09-09T18:26:58.824Z,24.14
2022-09-09T18:29:26.351Z,23.92
2022-09-09T18:31:55.224Z,24.01
2022-09-09T18:34:25.586Z,23.98
2022-09-09T18:36:55.077Z,23.86
2022-09-09T18:39:25.786Z,23.61
2022-09-09T18:41:55.948Z,23.75
2022-09-09T18:44:26.678Z,23.71
2022-09-09T18:46:54.448Z,23.84
2022-09-09T18:49:24.458Z,23.61
2022-09-09T18:51:52.330Z,23.53
2022-09-09T18:54:22.935Z,23.67
2022-09-09T18:56:51.479Z,23.59
2022-09-09T18:59:22.922Z,23.69
2022-09-09T19:01:52.243Z,23.68
2022-09-09T19:04:21.873Z,23.57
2022-09-09T19:06:50.318Z,23.53
2022-09-09T19:09:18.883Z,23.65
2022-09-09T19:11:47.011Z,23.65
2022-09-09T19:14:16.738Z,23.44
2022-09-09T19:16:45.471Z,23.43
2022-09-09T19:19:22.559Z,23.12
2022-09-09T19:21:51.583Z,23.55
2022-09-09T19:24:23.124Z,23.44
2022-09-09T19:26:52.919Z,23.32
2022-09-09T19:29:23.666Z,23.04
2022-09-09T19:32:36.532Z,23.13
2022-09-09T19:34:40.937Z,23.06
2022-09-09T19:37:08.511Z,22.72
2022-09-09T19:39:35.918Z,22.76
2022-09-09T19:42:03.634Z,22.60
2022-09-09T19:44:31.079Z,22.74
2022-09-09T19:46:59.613Z,22.80
2022-09-09T19:49:27.041Z,22.72
2022-09-09T19:51:56.026Z,22.68
2022-09-09T19:54:23.509Z,22.76
2022-09-09T19:56:54.120Z,22.81
2022-09-09T19:59:21.471Z,22.78
2022-09-09T20:01:49.300Z,22.82
2022-09-09T20:04:17.790Z,22.84
2022-09-09T20:06:45.732Z,22.95
2022-09-09T20:09:16.496Z,22.94
2022-09-09T20:11:45.932Z,22.77
2022-09-09T20:14:16.016Z,22.81
2022-09-09T20:16:43.861Z,22.77
2022-09-09T20:19:12.894Z,22.78
2022-09-09T20:21:47.893Z,22.79
2022-09-09T20:24:18.778Z,22.79
2022-09-09T20:26:48.323Z,22.85
2022-09-09T20:29:18.248Z,23.00
2022-09-09T20:31:46.297Z,22.84
2022-09-09T20:34:19.511Z,22.47
2022-09-09T20:36:47.378Z,22.55
2022-09-09T20:39:17.308Z,22.55
2022-09-09T20:41:46.348Z,22.70
2022-09-09T20:44:19.257Z,22.60
2022-09-09T20:46:48.785Z,22.52
2022-09-09T20:49:19.005Z,22.69
2022-09-09T20:51:48.016Z,22.71
2022-09-09T20:54:21.100Z,22.60
2022-09-09T20:56:48.605Z,22.67
2022-09-09T20:59:23.955Z,22.56
2022-09-09T21:01:53.285Z,22.56
2022-09-09T21:04:21.883Z,22.71
2022-09-09T21:06:51.106Z,22.83
2022-09-09T21:09:19.539Z,22.92
2022-09-09T21:11:47.225Z,22.87
2022-09-09T21:14:15.212Z,22.77
2022-09-09T21:16:43.007Z,22.78
2022-09-09T21:19:10.412Z,22.56
2022-09-09T21:21:37.950Z,22.41
2022-09-09T21:24:05.664Z,22.37
2022-09-09T21:26:36.371Z,22.08
2022-09-09T21:29:03.687Z,21.57
2022-09-09T21:31:31.588Z,21.64
2022-09-09T21:33:59.527Z,21.42
2022-09-09T21:36:28.675Z,21.37
2022-09-09T21:38:59.167Z,21.26
2022-09-09T21:41:27.205Z,21.37
2022-09-09T21:43:55.514Z,21.57
2022-09-09T21:46:24.016Z,21.62
2022-09-09T21:48:51.911Z,21.39
2022-09-09T21:51:19.230Z,21.10
2022-09-09T21:53:46.588Z,21.21
2022-09-09T21:56:17.303Z,21.23
2022-09-09T21:58:46.054Z,21.18
2022-09-09T22:01:16.397Z,20.88
2022-09-09T22:03:45.112Z,20.99
2022-09-09T22:06:15.364Z,21.09
2022-09-09T22:08:43.741Z,20.99
2022-09-09T22:11:17.165Z,21.12
2022-09-09T22:13:48.309Z,21.18
2022-09-09T22:16:20.093Z,21.33
2022-09-09T22:18:56.898Z,21.41
2022-09-09T22:21:26.189Z,21.26
2022-09-09T22:23:59.281Z,21.33
2022-09-09T22:26:28.793Z,21.27
2022-09-09T22:28:57.333Z,21.02
2022-09-09T22:31:25.943Z,21.13
2022-09-09T22:33:53.834Z,20.74
2022-09-09T22:36:21.687Z,20.74
2022-09-09T22:38:50.439Z,21.03
2022-09-09T22:41:18.907Z,20.82
2022-09-09T22:43:46.891Z,20.64
2022-09-09T22:46:14.715Z,20.62
2022-09-09T22:48:42.107Z,20.67
2022-09-09T22:51:12.645Z,21.08
2022-09-09T22:53:41.545Z,21.15
2022-09-09T22:56:14.280Z,21.15
2022-09-09T22:58:41.494Z,20.85
2022-09-09T23:01:16.522Z,21.03
2022-09-09T23:03:47.797Z,20.53
2022-09-09T23:06:22.219Z,20.35
2022-09-09T23:08:56.149Z,20.34
2022-09-09T23:11:29.176Z,20.09
2022-09-09T23:13:58.773Z,19.93
2022-09-09T23:16:27.367Z,19.96
2022-09-09T23:18:57.472Z,19.95
2022-09-09T23:21:28.197Z,20.10
2022-09-09T23:23:57.540Z,20.21
2022-09-09T23:26:26.315Z,20.31
2022-09-09T23:28:55.893Z,20.40
2022-09-09T23:31:24.904Z,20.55
2022-09-09T23:33:54.431Z,20.40
2022-09-09T23:36:24.833Z,20.40
2022-09-09T23:38:54.517Z,20.53
2022-09-09T23:41:22.324Z,20.52
2022-09-09T23:43:52.230Z,20.47
2022-09-09T23:46:27.721Z,20.40
2022-09-09T23:48:57.454Z,20.43
2022-09-09T23:51:28.850Z,20.54
2022-09-09T23:53:58.592Z,20.42
2022-09-09T23:56:29.107Z,20.38
2022-09-09T23:58:56.459Z,20.43
